createdAt,value
2022-07-25T00:01:37.738Z,3.30
2022-07-25T00:04:09.383Z,3.50
2022-07-25T00:06:40.802Z,3.43
2022-07-25T00:09:09.575Z,4.00
2022-07-25T00:11:39.592Z,3.53
2022-07-25T00:14:09.277Z,3.97
2022-07-25T00:16:38.307Z,3.67
2022-07-25T00:19:07.232Z,3.57
2022-07-25T00:21:35.749Z,4.17
2022-07-25T00:24:04.821Z,3.60
2022-07-25T00:26:39.472Z,3.30
2022-07-25T00:29:10.120Z,4.70
2022-07-25T00:31:38.737Z,4.03
2022-07-25T00:34:07.873Z,3.57
2022-07-25T00:36:36.659Z,3.60
2022-07-25T00:39:05.314Z,3.80
2022-07-25T00:41:33.903Z,3.90
2022-07-25T00:44:02.870Z,4.17
2022-07-25T00:46:33.062Z,3.90
2022-07-25T00:49:01.713Z,4.30
2022-07-25T00:51:30.378Z,4.30
2022-07-25T00:53:59.507Z,4.20
2022-07-25T00:56:28.270Z,4.00
2022-07-25T00:58:57.138Z,4.43
2022-07-25T01:01:25.742Z,4.10
2022-07-25T01:03:55.778Z,4.10
2022-07-25T01:06:24.853Z,3.63
2022-07-25T01:08:54.421Z,3.87
2022-07-25T01:11:23.959Z,4.13
2022-07-25T01:13:52.855Z,4.67
2022-07-25T01:16:21.475Z,5.07
2022-07-25T01:18:50.088Z,4.10
2022-07-25T01:21:19.966Z,4.13
2022-07-25T01:23:48.538Z,4.90
2022-07-25T01:26:17.058Z,4.57
2022-07-25T01:28:45.631Z,5.10
2022-07-25T01:31:14.236Z,4.63
2022-07-25T01:33:42.808Z,4.73
2022-07-25T01:36:11.649Z,5.33
2022-07-25T01:38:41.702Z,5.67
2022-07-25T01:41:10.331Z,5.03
2022-07-25T01:43:38.836Z,5.13
2022-07-25T01:46:07.690Z,5.00
2022-07-25T01:48:36.452Z,4.70
2022-07-25T01:51:05.202Z,5.10
2022-07-25T01:53:33.871Z,5.13
2022-07-25T01:56:08.957Z,5.13
2022-07-25T01:58:39.540Z,5.80
2022-07-25T02:01:08.274Z,5.53
2022-07-25T02:03:37.024Z,5.20
2022-07-25T02:06:07.897Z,5.40
2022-07-25T02:08:36.730Z,5.83
2022-07-25T02:11:07.051Z,5.77
2022-07-25T02:13:35.743Z,6.13
2022-07-25T02:16:04.344Z,6.03
2022-07-25T02:18:32.978Z,6.80
2022-07-25T02:21:01.612Z,5.60
2022-07-25T02:23:30.135Z,6.60
2022-07-25T02:25:58.694Z,7.23
2022-07-25T02:28:28.641Z,6.63
2022-07-25T02:30:57.297Z,6.70
2022-07-25T02:33:25.902Z,8.03
2022-07-25T02:35:54.452Z,7.47
2022-07-25T02:38:23.145Z,7.83
2022-07-25T02:40:52.917Z,7.60
2022-07-25T02:43:22.209Z,9.00
2022-07-25T02:45:52.220Z,9.00
2022-07-25T02:48:20.933Z,9.67
2022-07-25T02:50:49.498Z,9.80
2022-07-25T02:53:28.967Z,11.10
2022-07-25T02:56:07.040Z,9.47
2022-07-25T02:58:36.392Z,11.60
2022-07-25T03:01:09.692Z,10.90
2022-07-25T03:03:38.344Z,11.93
2022-07-25T03:06:07.476Z,13.27
2022-07-25T03:08:36.026Z,13.70
2022-07-25T03:11:04.779Z,13.30
2022-07-25T03:13:34.104Z,15.07
2022-07-25T03:16:02.978Z,13.17
2022-07-25T03:18:32.882Z,14.60
2022-07-25T03:21:01.547Z,22.37
2022-07-25T03:23:31.107Z,24.53
2022-07-25T03:25:59.894Z,20.73
2022-07-25T03:28:28.506Z,32.27
2022-07-25T03:30:57.124Z,35.73
2022-07-25T03:33:25.722Z,36.43
2022-07-25T03:35:56.481Z,33.87
2022-07-25T03:38:25.445Z,31.47
2022-07-25T03:40:53.984Z,30.13
2022-07-25T03:43:22.548Z,29.90
2022-07-25T03:45:51.139Z,30.43
2022-07-25T03:48:19.696Z,30.27
2022-07-25T03:50:48.237Z,36.03
2022-07-25T03:53:18.548Z,40.17
2022-07-25T03:55:47.144Z,36.00
2022-07-25T03:58:15.742Z,40.40
2022-07-25T04:00:44.349Z,48.10
2022-07-25T04:03:12.937Z,46.37
2022-07-25T04:05:47.009Z,45.90
2022-07-25T04:08:17.411Z,50.57
2022-07-25T04:10:45.945Z,48.90
2022-07-25T04:13:14.466Z,46.23
2022-07-25T04:15:43.000Z,49.43
2022-07-25T04:18:13.177Z,48.63
2022-07-25T04:20:47.128Z,49.90
2022-07-25T04:23:17.140Z,49.50
2022-07-25T04:25:45.688Z,47.23
2022-07-25T04:28:14.268Z,51.73
2022-07-25T04:30:45.372Z,55.43
2022-07-25T04:33:15.383Z,64.53
2022-07-25T04:35:44.096Z,61.90
2022-07-25T04:38:12.886Z,66.90
2022-07-25T04:40:42.989Z,65.93
2022-07-25T04:43:11.817Z,66.10
2022-07-25T04:45:40.644Z,69.47
2022-07-25T04:48:09.442Z,68.70
2022-07-25T04:50:38.102Z,70.83
2022-07-25T04:53:07.346Z,72.67
2022-07-25T04:55:36.322Z,72.87
2022-07-25T04:58:06.698Z,73.13
2022-07-25T05:00:35.357Z,75.53
2022-07-25T05:03:04.058Z,74.33
2022-07-25T05:05:32.707Z,78.30
2022-07-25T05:08:01.849Z,79.10
2022-07-25T05:10:31.238Z,74.70
2022-07-25T05:12:59.748Z,77.03
2022-07-25T05:15:29.680Z,75.87
2022-07-25T05:17:58.291Z,74.93
2022-07-25T05:20:26.976Z,73.70
2022-07-25T05:22:55.627Z,71.97
2022-07-25T05:25:25.377Z,74.90
2022-07-25T05:27:55.869Z,70.17
2022-07-25T05:30:24.365Z,70.07
2022-07-25T05:32:54.544Z,65.63
2022-07-25T05:35:23.079Z,67.77
2022-07-25T05:37:51.588Z,62.57
2022-07-25T05:40:20.353Z,61.60
2022-07-25T05:42:49.001Z,64.23
2022-07-25T05:45:17.538Z,61.97
2022-07-25T05:47:46.065Z,56.83
2022-07-25T05:50:16.012Z,54.90
2022-07-25T05:52:44.566Z,53.03
2022-07-25T05:55:13.661Z,49.10
2022-07-25T05:57:42.329Z,37.57
2022-07-25T06:00:12.032Z,36.87
2022-07-25T06:02:40.702Z,36.43
2022-07-25T06:05:09.991Z,32.63
2022-07-25T06:07:39.881Z,33.40
2022-07-25T06:10:08.715Z,32.13
2022-07-25T06:12:37.737Z,32.43
2022-07-25T06:15:07.359Z,31.43
2022-07-25T06:17:41.248Z,31.60
2022-07-25T06:20:10.693Z,26.90
2022-07-25T06:22:40.686Z,29.33
2022-07-25T06:25:09.955Z,26.60
2022-07-25T06:27:39.633Z,28.20
2022-07-25T06:30:19.077Z,25.50
2022-07-25T06:32:48.226Z,24.77
2022-07-25T06:35:16.814Z,26.20
2022-07-25T06:37:46.878Z,24.20
2022-07-25T06:40:15.984Z,24.23
2022-07-25T06:42:46.570Z,22.30
2022-07-25T06:45:16.391Z,23.07
2022-07-25T06:47:46.303Z,21.10
2022-07-25T06:50:18.499Z,19.10
2022-07-25T06:52:51.404Z,19.57
2022-07-25T06:55:19.981Z,17.93
2022-07-25T06:57:48.526Z,18.60
2022-07-25T07:00:17.553Z,18.17
2022-07-25T07:02:51.153Z,18.20
2022-07-25T07:05:20.099Z,15.87
2022-07-25T07:07:50.038Z,16.33
2022-07-25T07:10:19.569Z,15.73
2022-07-25T07:12:48.179Z,15.20
2022-07-25T07:15:17.240Z,16.57
2022-07-25T07:17:45.761Z,15.97
2022-07-25T07:20:14.414Z,17.50
2022-07-25T07:22:47.341Z,15.77
2022-07-25T07:25:19.659Z,16.50
2022-07-25T07:27:48.769Z,16.73
2022-07-25T07:30:23.712Z,17.43
2022-07-25T07:32:52.928Z,17.87
2022-07-25T07:35:21.475Z,17.10
2022-07-25T07:37:50.049Z,16.47
2022-07-25T07:40:20.456Z,17.47
2022-07-25T07:42:50.232Z,15.90
2022-07-25T07:45:20.253Z,16.40
2022-07-25T07:47:49.911Z,16.33
2022-07-25T07:50:20.196Z,16.00
2022-07-25T07:52:49.491Z,16.47
2022-07-25T07:55:37.599Z,16.50
2022-07-25T07:58:07.338Z,16.03
2022-07-25T08:00:39.158Z,15.33
2022-07-25T08:03:09.329Z,16.10
2022-07-25T08:05:40.607Z,13.10
2022-07-25T08:08:11.012Z,16.37
2022-07-25T08:10:43.544Z,16.13
2022-07-25T08:13:16.606Z,15.40
2022-07-25T08:15:46.350Z,14.50
2022-07-25T08:18:16.898Z,15.20
2022-07-25T08:20:46.317Z,12.70
2022-07-25T08:23:15.199Z,12.50
2022-07-25T08:25:45.694Z,11.97
2022-07-25T08:28:14.734Z,11.63
2022-07-25T08:30:43.954Z,11.10
2022-07-25T08:33:15.913Z,9.87
2022-07-25T08:35:48.942Z,8.80
2022-07-25T08:38:18.185Z,8.67
2022-07-25T08:40:48.591Z,9.70
2022-07-25T08:43:18.135Z,9.77
2022-07-25T08:45:48.248Z,9.20
2022-07-25T08:48:19.668Z,9.60
2022-07-25T08:50:49.519Z,8.70
2022-07-25T08:53:36.134Z,8.57
2022-07-25T08:56:17.393Z,8.73
2022-07-25T08:58:49.599Z,9.27
2022-07-25T09:01:18.367Z,7.60
2022-07-25T09:03:46.951Z,7.40
2022-07-25T09:06:20.662Z,7.60
2022-07-25T09:08:53.654Z,6.83
2022-07-25T09:11:31.455Z,6.03
2022-07-25T09:14:02.213Z,6.77
2022-07-25T09:16:31.853Z,6.70
2022-07-25T09:19:15.029Z,7.00
2022-07-25T09:21:58.217Z,6.60
2022-07-25T09:24:28.160Z,6.03
2022-07-25T09:27:00.567Z,7.27
2022-07-25T09:29:31.534Z,6.17
2022-07-25T09:32:01.720Z,6.40
2022-07-25T09:34:35.706Z,6.40
2022-07-25T09:37:05.367Z,8.00
2022-07-25T09:39:45.448Z,6.67
2022-07-25T09:42:25.386Z,6.50
2022-07-25T09:45:06.816Z,6.77
2022-07-25T09:47:37.404Z,6.50
2022-07-25T09:50:07.582Z,6.90
2022-07-25T09:52:36.795Z,6.50
2022-07-25T09:55:09.480Z,6.30
2022-07-25T09:57:39.430Z,6.90
2022-07-25T10:00:10.101Z,6.33
2022-07-25T10:02:49.323Z,7.10
2022-07-25T10:05:21.838Z,5.93
2022-07-25T10:07:54.098Z,6.60
2022-07-25T10:10:30.274Z,6.87
2022-07-25T10:13:10.153Z,7.37
2022-07-25T10:15:47.887Z,6.10
2022-07-25T10:18:18.544Z,6.80
2022-07-25T10:20:48.268Z,6.97
2022-07-25T10:23:25.848Z,6.20
2022-07-25T10:26:13.293Z,6.27
2022-07-25T10:28:46.521Z,6.43
2022-07-25T10:31:27.779Z,5.60
2022-07-25T10:33:58.716Z,6.80
2022-07-25T10:36:32.388Z,6.40
2022-07-25T10:39:02.615Z,5.93
2022-07-25T10:41:31.407Z,7.30
2022-07-25T10:44:04.089Z,6.73
2022-07-25T10:46:37.196Z,7.03
2022-07-25T10:49:08.061Z,7.23
2022-07-25T10:51:41.958Z,6.13
2022-07-25T10:54:15.348Z,6.40
2022-07-25T10:56:54.134Z,6.67
2022-07-25T10:59:32.545Z,6.60
2022-07-25T11:02:01.922Z,6.60
2022-07-25T11:04:30.941Z,6.70
2022-07-25T11:07:08.568Z,6.53
2022-07-25T11:09:37.120Z,6.77
2022-07-25T11:12:06.815Z,7.17
2022-07-25T11:14:41.271Z,6.47
2022-07-25T11:17:15.692Z,6.80
2022-07-25T11:19:45.788Z,6.20
2022-07-25T11:22:17.072Z,8.17
2022-07-25T11:24:47.736Z,6.30
2022-07-25T11:27:23.419Z,6.70
2022-07-25T11:29:53.431Z,7.17
2022-07-25T11:32:22.387Z,6.70
2022-07-25T11:34:54.553Z,6.70
2022-07-25T11:37:23.330Z,7.30
2022-07-25T11:39:52.988Z,6.50
2022-07-25T11:42:22.895Z,7.20
2022-07-25T11:44:54.475Z,7.67
2022-07-25T11:47:27.536Z,6.63
2022-07-25T11:49:57.767Z,6.03
2022-07-25T11:52:31.053Z,6.07
2022-07-25T11:55:01.838Z,7.23
2022-07-25T11:57:32.356Z,5.93
2022-07-25T12:00:03.598Z,6.33
2022-07-25T12:02:35.379Z,6.77
2022-07-25T12:05:06.318Z,6.40
2022-07-25T12:07:40.264Z,6.40
2022-07-25T12:10:11.136Z,6.67
2022-07-25T12:12:50.896Z,6.20
2022-07-25T12:15:23.156Z,7.13
2022-07-25T12:17:52.669Z,6.63
2022-07-25T12:20:22.473Z,6.07
2022-07-25T12:22:52.440Z,6.20
2022-07-25T12:25:21.206Z,7.27
2022-07-25T12:27:50.961Z,5.80
2022-07-25T12:30:21.054Z,6.60
2022-07-25T12:32:49.763Z,6.47
2022-07-25T12:35:18.592Z,5.70
2022-07-25T12:37:47.508Z,5.97
2022-07-25T12:40:17.229Z,6.13
2022-07-25T12:42:46.599Z,6.37
2022-07-25T12:45:17.146Z,6.67
2022-07-25T12:47:48.394Z,6.90
2022-07-25T12:50:18.066Z,6.83
2022-07-25T12:52:47.520Z,7.17
2022-07-25T12:55:17.523Z,6.00
2022-07-25T12:57:46.451Z,6.70
2022-07-25T13:00:17.566Z,6.50
2022-07-25T13:02:47.706Z,6.57
2022-07-25T13:05:16.400Z,6.27
2022-07-25T13:07:44.987Z,6.40
2022-07-25T13:10:13.675Z,6.63
2022-07-25T13:12:42.387Z,7.43
2022-07-25T13:15:11.526Z,6.47
2022-07-25T13:17:41.080Z,7.50
2022-07-25T13:20:12.452Z,7.63
2022-07-25T13:22:40.985Z,8.40
2022-07-25T13:25:09.814Z,6.70
2022-07-25T13:27:39.450Z,7.23
2022-07-25T13:30:10.127Z,8.37
2022-07-25T13:32:38.658Z,8.27
2022-07-25T13:35:07.913Z,7.33
2022-07-25T13:37:37.784Z,7.80
2022-07-25T13:40:09.032Z,7.50
2022-07-25T13:42:38.217Z,7.60
2022-07-25T13:45:07.723Z,8.20
2022-07-25T13:47:36.522Z,7.33
2022-07-25T13:50:06.154Z,6.87
2022-07-25T13:52:34.783Z,7.10
2022-07-25T13:55:05.220Z,6.70
2022-07-25T13:57:34.458Z,7.07
2022-07-25T14:00:03.437Z,6.73
2022-07-25T14:02:32.043Z,7.77
2022-07-25T14:05:03.964Z,7.67
2022-07-25T14:07:32.940Z,7.33
2022-07-25T14:10:02.930Z,7.70
2022-07-25T14:12:31.549Z,7.77
2022-07-25T14:15:00.105Z,7.40
2022-07-25T14:17:30.603Z,7.50
2022-07-25T14:19:59.247Z,7.57
2022-07-25T14:22:27.914Z,8.17
2022-07-25T14:24:56.428Z,7.00
2022-07-25T14:27:26.344Z,7.00
2022-07-25T14:29:55.011Z,7.30
2022-07-25T14:32:23.640Z,7.50
2022-07-25T14:34:52.573Z,7.23
2022-07-25T14:37:23.398Z,7.77
2022-07-25T14:39:52.420Z,7.47
2022-07-25T14:42:21.089Z,7.80
2022-07-25T14:44:51.066Z,7.43
2022-07-25T14:47:19.785Z,7.30
2022-07-25T14:49:48.350Z,7.20
2022-07-25T14:52:17.114Z,7.13
2022-07-25T14:54:45.729Z,7.43
2022-07-25T14:57:14.244Z,7.30
2022-07-25T14:59:42.757Z,6.47
2022-07-25T15:02:12.651Z,7.60
2022-07-25T15:04:41.227Z,6.90
2022-07-25T15:07:12.199Z,7.20
2022-07-25T15:09:44.029Z,6.47
2022-07-25T15:12:16.617Z,6.93
2022-07-25T15:14:48.968Z,6.83
2022-07-25T15:17:21.702Z,6.40
2022-07-25T15:19:50.497Z,7.20
2022-07-25T15:22:19.022Z,6.80
2022-07-25T15:25:27.166Z,6.93
2022-07-25T15:27:36.065Z,7.00
2022-07-25T15:30:05.081Z,6.50
2022-07-25T15:32:34.961Z,6.50
2022-07-25T15:35:05.245Z,6.50
2022-07-25T15:37:33.911Z,6.90
2022-07-25T15:40:02.545Z,7.50
2022-07-25T15:42:35.742Z,5.70
2022-07-25T15:45:31.590Z,6.00
2022-07-25T15:47:56.497Z,6.00
2022-07-25T15:50:25.380Z,6.80
2022-07-25T15:52:53.903Z,6.77
2022-07-25T15:55:22.576Z,6.80
2022-07-25T15:57:52.467Z,6.23
2022-07-25T16:00:23.673Z,7.17
2022-07-25T16:02:56.249Z,6.60
2022-07-25T16:05:25.071Z,6.17
2022-07-25T16:07:53.916Z,6.80
2022-07-25T16:10:22.860Z,6.50
2022-07-25T16:12:51.418Z,6.00
2022-07-25T16:15:20.009Z,6.70
2022-07-25T16:17:49.456Z,6.70
2022-07-25T16:20:19.499Z,7.20
2022-07-25T16:22:49.057Z,6.30
2022-07-25T16:25:17.878Z,6.30
2022-07-25T16:27:46.419Z,6.57
2022-07-25T16:30:15.622Z,7.03
2022-07-25T16:32:44.169Z,6.70
2022-07-25T16:35:12.726Z,5.87
2022-07-25T16:37:43.622Z,5.77
2022-07-25T16:40:12.654Z,6.40
2022-07-25T16:42:41.227Z,6.10
2022-07-25T16:45:10.801Z,5.60
2022-07-25T16:47:41.826Z,6.43
2022-07-25T16:50:10.847Z,6.50
2022-07-25T16:52:39.360Z,6.07
2022-07-25T16:55:09.892Z,6.03
2022-07-25T16:57:39.676Z,6.70
2022-07-25T17:00:10.240Z,5.37
2022-07-25T17:02:39.730Z,6.07
2022-07-25T17:05:08.943Z,6.10
2022-07-25T17:07:39.383Z,6.03
2022-07-25T17:10:10.296Z,5.63
2022-07-25T17:12:38.917Z,6.37
2022-07-25T17:15:09.160Z,6.83
2022-07-25T17:17:37.689Z,6.00
2022-07-25T17:20:07.265Z,6.13
2022-07-25T17:22:35.868Z,5.90
2022-07-25T17:25:04.531Z,6.60
2022-07-25T17:27:34.426Z,6.23
2022-07-25T17:30:03.023Z,6.27
2022-07-25T17:32:31.587Z,6.20
2022-07-25T17:35:00.103Z,6.20
2022-07-25T17:37:28.691Z,6.70
2022-07-25T17:39:57.384Z,6.27
2022-07-25T17:42:25.944Z,5.47
2022-07-25T17:44:55.830Z,9.07
2022-07-25T17:47:24.519Z,6.90
2022-07-25T17:49:53.209Z,5.50
2022-07-25T17:52:21.765Z,6.90
2022-07-25T17:54:50.308Z,7.30
2022-07-25T17:57:19.063Z,7.83
2022-07-25T17:59:47.572Z,6.27
2022-07-25T18:02:17.473Z,6.37
2022-07-25T18:04:45.915Z,6.60
2022-07-25T18:07:14.566Z,6.10
2022-07-25T18:09:43.192Z,7.00
2022-07-25T18:12:11.651Z,5.80
2022-07-25T18:14:40.196Z,6.03
2022-07-25T18:17:08.703Z,6.53
2022-07-25T18:19:39.054Z,5.67
2022-07-25T18:22:07.586Z,6.53
2022-07-25T18:24:36.079Z,5.83
2022-07-25T18:27:05.355Z,8.23
2022-07-25T18:29:37.038Z,8.27
2022-07-25T18:32:06.159Z,9.30
2022-07-25T18:34:34.786Z,7.23
2022-07-25T18:37:04.693Z,9.20
2022-07-25T18:39:33.266Z,10.60
2022-07-25T18:42:01.810Z,11.00
2022-07-25T18:44:32.377Z,9.97
2022-07-25T18:47:01.226Z,9.73
2022-07-25T18:49:30.461Z,9.33
2022-07-25T18:51:58.999Z,11.17
2022-07-25T18:54:28.845Z,11.07
2022-07-25T18:56:57.532Z,10.17
2022-07-25T18:59:26.450Z,10.60
2022-07-25T19:01:55.484Z,10.43
2022-07-25T19:04:24.048Z,10.73
2022-07-25T19:06:52.603Z,11.00
2022-07-25T19:09:21.250Z,10.43
2022-07-25T19:11:51.286Z,11.13
2022-07-25T19:14:19.830Z,11.30
2022-07-25T19:16:50.178Z,10.50
2022-07-25T19:19:18.784Z,10.73
2022-07-25T19:21:47.522Z,11.87
2022-07-25T19:24:16.187Z,11.27
2022-07-25T19:26:48.212Z,11.90
2022-07-25T19:29:19.123Z,11.50
2022-07-25T19:31:48.173Z,11.37
2022-07-25T19:34:16.801Z,10.70
2022-07-25T19:36:48.237Z,10.00
2022-07-25T19:39:17.490Z,10.50
2022-07-25T19:41:49.187Z,11.03
2022-07-25T19:44:19.272Z,11.60
2022-07-25T19:46:48.763Z,11.70
2022-07-25T19:49:17.943Z,12.07
2022-07-25T19:51:46.548Z,10.47
2022-07-25T19:54:15.082Z,11.47
2022-07-25T19:56:43.602Z,10.63
2022-07-25T19:59:12.232Z,10.60
2022-07-25T20:01:42.397Z,10.30
2022-07-25T20:04:13.133Z,11.50
2022-07-25T20:06:43.370Z,10.93
2022-07-25T20:09:12.254Z,10.10
2022-07-25T20:11:41.789Z,11.10
2022-07-25T20:14:10.881Z,11.17
2022-07-25T20:16:41.806Z,11.37
2022-07-25T20:19:11.900Z,11.87
2022-07-25T20:21:41.840Z,10.67
2022-07-25T20:24:12.388Z,10.73
2022-07-25T20:26:41.281Z,10.60
2022-07-25T20:29:10.133Z,10.80
2022-07-25T20:31:39.285Z,10.47
2022-07-25T20:34:09.424Z,9.73
2022-07-25T20:36:37.991Z,10.20
2022-07-25T20:39:07.437Z,9.80
2022-07-25T20:41:38.309Z,11.13
2022-07-25T20:44:07.511Z,10.13
2022-07-25T20:46:36.887Z,10.40
2022-07-25T20:49:08.733Z,10.87
2022-07-25T20:51:40.391Z,9.30
2022-07-25T20:54:09.546Z,9.37
2022-07-25T20:56:38.187Z,11.07
2022-07-25T20:59:07.223Z,10.10
2022-07-25T21:01:36.017Z,10.73
2022-07-25T21:04:07.624Z,10.40
2022-07-25T21:06:38.104Z,10.20
2022-07-25T21:09:08.694Z,10.43
2022-07-25T21:11:37.612Z,11.40
2022-07-25T21:14:09.597Z,10.90
2022-07-25T21:16:38.562Z,11.30
2022-07-25T21:19:07.468Z,10.67
2022-07-25T21:21:36.607Z,11.23
2022-07-25T21:24:07.461Z,10.60
2022-07-25T21:26:37.042Z,10.60
2022-07-25T21:29:06.165Z,10.67
2022-07-25T21:31:35.473Z,11.10
2022-07-25T21:34:04.439Z,10.00
2022-07-25T21:36:34.136Z,13.20
2022-07-25T21:39:02.654Z,10.40
2022-07-25T21:41:32.577Z,11.40
2022-07-25T21:44:01.461Z,12.03
2022-07-25T21:46:30.106Z,10.40
2022-07-25T21:49:15.965Z,10.17
2022-07-25T21:51:45.116Z,10.27
2022-07-25T21:54:14.074Z,11.50
2022-07-25T21:56:44.022Z,9.57
2022-07-25T21:59:12.589Z,9.73
2022-07-25T22:01:41.273Z,10.83
2022-07-25T22:04:10.002Z,11.67
2022-07-25T22:06:38.923Z,12.27
2022-07-25T22:09:08.452Z,11.77
2022-07-25T22:11:42.562Z,11.80
2022-07-25T22:14:16.512Z,12.27
2022-07-25T22:16:45.149Z,13.40
2022-07-25T22:19:14.088Z,11.40
2022-07-25T22:21:43.144Z,10.47
2022-07-25T22:24:12.220Z,10.80
2022-07-25T22:26:40.825Z,10.37
2022-07-25T22:29:09.684Z,11.47
2022-07-25T22:31:40.018Z,10.87
2022-07-25T22:34:08.738Z,10.90
2022-07-25T22:36:37.328Z,12.03
2022-07-25T22:39:06.417Z,10.43
2022-07-25T22:41:35.097Z,11.37
2022-07-25T22:44:03.762Z,12.00
2022-07-25T22:46:32.867Z,12.80
2022-07-25T22:49:03.243Z,12.40
2022-07-25T22:51:32.148Z,11.27
2022-07-25T22:54:00.920Z,14.53
2022-07-25T22:56:29.699Z,15.90
2022-07-25T22:58:58.387Z,17.90
2022-07-25T23:01:26.930Z,21.73
2022-07-25T23:03:55.532Z,23.30
2022-07-25T23:06:25.461Z,24.03
2022-07-25T23:08:53.998Z,25.77
2022-07-25T23:11:22.620Z,26.50
2022-07-25T23:13:51.177Z,25.87
2022-07-25T23:16:19.987Z,28.27
2022-07-25T23:18:48.563Z,32.80
2022-07-25T23:21:17.092Z,31.23
2022-07-25T23:23:47.092Z,31.07
2022-07-25T23:26:15.690Z,27.60
2022-07-25T23:28:44.228Z,27.13
2022-07-25T23:31:12.855Z,24.77
2022-07-25T23:33:41.442Z,14.90
2022-07-25T23:36:11.178Z,14.23
2022-07-25T23:38:39.816Z,14.13
2022-07-25T23:41:09.881Z,16.00
2022-07-25T23:43:56.640Z,20.13
2022-07-25T23:46:29.237Z,22.20
2022-07-25T23:49:00.121Z,26.73
2022-07-25T23:51:29.308Z,23.70
2022-07-25T23:53:57.993Z,26.43
2022-07-25T23:56:27.970Z,26.10
2022-07-25T23:58:56.549Z,29.43
